Time;durP1;ratioP1;P1;durP2;ratioP2;P2;SDS_P1;SDS_P2;PMS_P1;PMS_P2;Temp;Humidity;BMP_temperature;BMP_pressure;BME280_temperature;BME280_humidity;BME280_pressure;Samples;Min_cycle;Max_cycle;Signal;HPM_P1;HPM_P2
2023/10/30 00:00:09;;;;;;;5.63;0.90;;;14.60;99.90;;;;;;4971218;28;20710;-76
2023/10/30 00:02:39;;;;;;;3.03;0.90;;;14.60;99.90;;;;;;4985960;28;20721;-76
2023/10/30 00:05:09;;;;;;;4.27;0.90;;;14.60;99.90;;;;;;4972061;28;20587;-77
2023/10/30 00:07:35;;;;;;;2.53;0.80;;;14.60;99.90;;;;;;4971783;28;20634;-77
2023/10/30 00:10:00;;;;;;;5.60;1.27;;;14.60;99.90;;;;;;4970730;28;20685;-77
2023/10/30 00:12:26;;;;;;;2.90;0.93;;;14.60;99.90;;;;;;4970494;28;20670;-77
2023/10/30 00:14:53;;;;;;;6.43;0.83;;;14.60;99.90;;;;;;4971955;28;20172;-76
2023/10/30 00:17:18;;;;;;;4.67;1.10;;;14.60;99.90;;;;;;4979677;28;20591;-77
2023/10/30 00:19:44;;;;;;;4.43;1.03;;;14.60;99.90;;;;;;4954548;28;20602;-76
2023/10/30 00:22:11;;;;;;;6.13;1.40;;;14.60;99.90;;;;;;4971827;28;20214;-77
2023/10/30 00:24:40;;;;;;;4.57;0.97;;;14.60;99.90;;;;;;4970505;28;20260;-77
2023/10/30 00:27:05;;;;;;;5.90;1.00;;;14.60;99.90;;;;;;4954037;28;20635;-77
2023/10/30 00:29:38;;;;;;;4.33;1.63;;;14.60;99.90;;;;;;4982661;28;21151;-76
2023/10/30 00:32:05;;;;;;;2.80;0.87;;;14.60;99.90;;;;;;4971729;28;20647;-78
2023/10/30 00:34:31;;;;;;;8.20;1.20;;;14.60;99.90;;;;;;4970232;28;20637;-77
2023/10/30 00:36:57;;;;;;;3.07;1.17;;;14.60;99.90;;;;;;4954110;28;20610;-77
2023/10/30 00:39:22;;;;;;;3.47;0.80;;;14.60;99.90;;;;;;4972310;28;20222;-76
2023/10/30 00:41:48;;;;;;;2.50;0.87;;;14.60;99.90;;;;;;4961325;28;20195;-77
2023/10/30 00:44:14;;;;;;;4.20;1.30;;;14.70;99.90;;;;;;4986471;28;20246;-77
2023/10/30 00:46:39;;;;;;;8.07;1.20;;;14.60;99.90;;;;;;4986569;28;20212;-76
2023/10/30 00:49:05;;;;;;;7.03;0.80;;;14.70;99.90;;;;;;4970199;28;20211;-77
2023/10/30 00:51:31;;;;;;;4.23;0.90;;;14.70;99.90;;;;;;4979404;28;20214;-77
2023/10/30 00:53:57;;;;;;;3.60;0.80;;;14.70;99.90;;;;;;4970259;28;20256;-77
2023/10/30 00:56:22;;;;;;;5.70;1.00;;;14.70;99.90;;;;;;4971445;28;20211;-77
2023/10/30 00:58:48;;;;;;;4.90;0.80;;;14.70;99.90;;;;;;4970238;28;20180;-77
2023/10/30 01:01:16;;;;;;;7.17;0.93;;;14.70;99.90;;;;;;4971327;28;20294;-77
2023/10/30 01:03:43;;;;;;;6.93;1.83;;;14.70;99.90;;;;;;4987074;28;20635;-77
2023/10/30 01:06:08;;;;;;;7.70;0.90;;;14.70;99.90;;;;;;4987484;28;20590;-77
2023/10/30 01:08:34;;;;;;;3.33;0.70;;;14.70;99.90;;;;;;4976520;28;20979;-77
2023/10/30 01:11:00;;;;;;;4.37;0.97;;;14.70;99.90;;;;;;4973614;28;20199;-77
2023/10/30 01:13:26;;;;;;;4.07;1.00;;;14.70;99.90;;;;;;4975131;28;20180;-77
2023/10/30 01:15:55;;;;;;;2.30;0.90;;;14.70;99.90;;;;;;4965864;28;20585;-76
2023/10/30 01:18:22;;;;;;;6.07;0.83;;;14.70;99.90;;;;;;4989731;28;20746;-77
2023/10/30 01:20:48;;;;;;;5.87;1.30;;;14.60;99.90;;;;;;4973792;28;20753;-77
2023/10/30 01:23:14;;;;;;;5.30;0.80;;;14.70;99.90;;;;;;4957771;28;20674;-76
2023/10/30 01:25:40;;;;;;;4.63;1.10;;;14.60;99.90;;;;;;4977185;28;21132;-76
2023/10/30 01:28:06;;;;;;;6.20;1.30;;;14.60;99.90;;;;;;4980257;28;20816;-77
2023/10/30 01:30:33;;;;;;;8.57;1.20;;;14.60;99.90;;;;;;4973096;28;20621;-77
2023/10/30 01:32:59;;;;;;;3.40;0.83;;;14.60;99.90;;;;;;4957633;28;20583;-77
2023/10/30 01:35:25;;;;;;;2.70;0.90;;;14.60;99.90;;;;;;4973091;28;20598;-77
2023/10/30 01:37:51;;;;;;;5.30;1.33;;;14.60;99.90;;;;;;4977320;28;21127;-77
2023/10/30 01:40:16;;;;;;;2.87;0.87;;;14.60;99.90;;;;;;4977921;28;20182;-77
2023/10/30 01:42:42;;;;;;;10.63;1.50;;;14.50;99.90;;;;;;4981537;28;20223;-77
2023/10/30 01:45:08;;;;;;;3.50;0.83;;;14.50;99.90;;;;;;4962845;28;20176;-77
2023/10/30 01:47:34;;;;;;;3.50;0.80;;;14.50;99.90;;;;;;4974609;28;20211;-76
2023/10/30 01:50:01;;;;;;;4.03;0.80;;;14.50;99.90;;;;;;4983053;28;21076;-76
2023/10/30 01:52:29;;;;;;;4.83;0.90;;;14.50;99.90;;;;;;4973501;28;20195;-76
2023/10/30 01:54:56;;;;;;;4.17;0.90;;;14.50;99.90;;;;;;4974776;28;20579;-76
2023/10/30 01:57:23;;;;;;;3.40;0.80;;;14.50;99.90;;;;;;4974652;28;20644;-76
2023/10/30 01:59:52;;;;;;;3.03;0.90;;;14.50;99.90;;;;;;4957176;28;20598;-77
2023/10/30 02:02:20;;;;;;;4.03;0.80;;;14.50;99.90;;;;;;4974207;28;20674;-76
2023/10/30 02:04:46;;;;;;;3.23;1.00;;;14.40;99.90;;;;;;4975382;28;21167;-76
2023/10/30 02:07:14;;;;;;;5.43;1.00;;;14.40;99.90;;;;;;4991654;28;20700;-77
2023/10/30 02:09:41;;;;;;;6.27;1.00;;;14.40;99.90;;;;;;4984337;28;20629;-76
2023/10/30 02:12:08;;;;;;;2.87;0.90;;;14.40;99.90;;;;;;4992850;28;20725;-76
2023/10/30 02:14:34;;;;;;;2.60;1.10;;;14.40;99.90;;;;;;4992287;28;20598;-76
2023/10/30 02:17:01;;;;;;;4.47;0.80;;;14.40;99.90;;;;;;4992606;28;20582;-76
2023/10/30 02:19:27;;;;;;;5.77;1.17;;;14.40;99.90;;;;;;4994499;28;20574;-76
2023/10/30 02:21:55;;;;;;;4.00;1.00;;;14.40;99.90;;;;;;4987892;28;20199;-76
2023/10/30 02:24:22;;;;;;;3.83;1.33;;;14.40;99.90;;;;;;5008859;28;20601;-76
2023/10/30 02:26:48;;;;;;;4.60;1.20;;;14.50;99.90;;;;;;5008420;28;21186;-76
2023/10/30 02:29:15;;;;;;;7.90;1.20;;;14.40;99.90;;;;;;4992289;28;20606;-76
2023/10/30 02:31:41;;;;;;;5.13;0.90;;;14.40;99.90;;;;;;4973788;28;21233;-76
2023/10/30 02:34:07;;;;;;;8.93;1.30;;;14.50;99.90;;;;;;4970158;28;21101;-77
2023/10/30 02:36:32;;;;;;;6.50;2.10;;;14.50;99.90;;;;;;4975726;28;20741;-77
2023/10/30 02:38:58;;;;;;;4.47;0.90;;;14.50;99.90;;;;;;4991938;28;20194;-77
2023/10/30 02:41:29;;;;;;;6.37;0.90;;;14.50;99.90;;;;;;4975897;28;20195;-77
2023/10/30 02:43:55;;;;;;;3.20;1.17;;;14.50;99.90;;;;;;4975865;28;20590;-77
2023/10/30 02:46:21;;;;;;;2.50;0.60;;;14.50;99.90;;;;;;4991939;28;20649;-77
2023/10/30 02:48:48;;;;;;;11.13;1.40;;;14.50;99.90;;;;;;4991736;28;20645;-77
2023/10/30 02:51:13;;;;;;;4.03;0.90;;;14.50;99.90;;;;;;4991210;28;20610;-77
2023/10/30 02:53:39;;;;;;;3.23;0.90;;;14.50;99.90;;;;;;5008108;28;20210;-77
2023/10/30 02:56:05;;;;;;;4.83;0.90;;;14.50;99.90;;;;;;4992326;28;20167;-77
2023/10/30 02:58:31;;;;;;;3.47;1.00;;;14.50;99.90;;;;;;4994903;28;20186;-77
2023/10/30 03:00:57;;;;;;;3.70;0.97;;;14.50;99.90;;;;;;4991011;28;20637;-77
2023/10/30 03:03:23;;;;;;;5.93;1.13;;;14.50;99.90;;;;;;5008064;28;20572;-76
2023/10/30 03:05:49;;;;;;;2.40;0.90;;;14.50;99.90;;;;;;4986985;28;20594;-77
2023/10/30 03:08:15;;;;;;;5.50;1.10;;;14.60;99.90;;;;;;4991164;28;20211;-77
2023/10/30 03:10:40;;;;;;;6.40;2.03;;;14.50;99.90;;;;;;4982233;28;20701;-76
2023/10/30 03:13:06;;;;;;;3.70;1.00;;;14.50;99.90;;;;;;4991523;28;20171;-77
2023/10/30 03:15:32;;;;;;;5.00;0.90;;;14.50;99.90;;;;;;4992405;28;20604;-77
2023/10/30 03:17:57;;;;;;;4.80;1.10;;;14.50;99.90;;;;;;4969552;28;20183;-77
2023/10/30 03:20:23;;;;;;;6.77;1.10;;;14.60;99.90;;;;;;4991501;28;20261;-77
2023/10/30 03:22:49;;;;;;;2.73;0.70;;;14.50;99.90;;;;;;4991997;28;20191;-77
2023/10/30 03:25:15;;;;;;;2.93;0.70;;;14.50;99.90;;;;;;4991275;28;20175;-77
2023/10/30 03:27:41;;;;;;;4.70;1.03;;;14.50;99.90;;;;;;4990321;28;20584;-76
2023/10/30 03:30:07;;;;;;;6.80;1.23;;;14.60;99.90;;;;;;4975028;28;20579;-76
2023/10/30 03:32:33;;;;;;;8.63;1.10;;;14.60;99.90;;;;;;4990941;28;20980;-76
2023/10/30 03:34:59;;;;;;;5.47;0.90;;;14.50;99.90;;;;;;4995107;28;20594;-76
2023/10/30 03:37:25;;;;;;;4.60;1.23;;;14.50;99.90;;;;;;4990690;28;20179;-76
2023/10/30 03:39:50;;;;;;;4.83;1.23;;;14.50;99.90;;;;;;4991361;28;20994;-76
2023/10/30 03:42:16;;;;;;;4.10;0.97;;;14.60;99.90;;;;;;4990725;28;20210;-76
2023/10/30 03:44:42;;;;;;;5.60;1.40;;;14.50;99.90;;;;;;4990924;28;20179;-76
2023/10/30 03:47:08;;;;;;;2.90;0.83;;;14.60;99.90;;;;;;4990316;28;20183;-76
2023/10/30 03:49:34;;;;;;;5.23;1.03;;;14.60;99.90;;;;;;4990412;28;21095;-76
2023/10/30 03:51:59;;;;;;;13.60;1.87;;;14.60;99.90;;;;;;4983422;28;20776;-76
2023/10/30 03:54:25;;;;;;;6.00;1.37;;;14.60;99.90;;;;;;4984725;28;20202;-76
2023/10/30 03:56:51;;;;;;;4.00;0.70;;;14.60;99.90;;;;;;4991805;28;20179;-76
2023/10/30 03:59:16;;;;;;;4.97;1.30;;;14.70;99.90;;;;;;4988065;28;20182;-76
2023/10/30 04:01:42;;;;;;;3.50;0.90;;;14.60;99.90;;;;;;5005698;28;20250;-76
2023/10/30 04:04:08;;;;;;;5.30;1.00;;;14.70;99.90;;;;;;4971419;28;20179;-76
2023/10/30 04:06:37;;;;;;;3.20;1.03;;;14.60;99.90;;;;;;4981486;28;20631;-77
2023/10/30 04:09:07;;;;;;;7.80;1.20;;;14.70;99.90;;;;;;4990602;28;20633;-76
2023/10/30 04:11:33;;;;;;;5.67;1.23;;;14.70;99.90;;;;;;4991058;28;20627;-76
2023/10/30 04:13:59;;;;;;;5.63;1.50;;;14.70;99.90;;;;;;4972600;28;20582;-77
2023/10/30 04:16:25;;;;;;;3.83;0.90;;;14.70;99.90;;;;;;4971393;28;20579;-77
2023/10/30 04:18:51;;;;;;;2.70;0.80;;;14.70;99.90;;;;;;4957512;28;20592;-77
2023/10/30 04:21:16;;;;;;;3.30;0.80;;;14.70;99.90;;;;;;4976235;28;20633;-76
2023/10/30 04:23:44;;;;;;;4.10;0.80;;;14.70;99.90;;;;;;4971942;28;20244;-76
2023/10/30 04:26:10;;;;;;;5.30;1.07;;;14.70;99.90;;;;;;4971187;28;20591;-77
2023/10/30 04:28:36;;;;;;;5.37;1.33;;;14.60;99.90;;;;;;4972368;28;20669;-76
2023/10/30 04:31:04;;;;;;;5.70;0.97;;;14.70;99.90;;;;;;4985862;28;20680;-76
2023/10/30 04:33:29;;;;;;;4.50;0.70;;;14.70;99.90;;;;;;4971937;28;21147;-76
2023/10/30 04:35:55;;;;;;;4.43;0.80;;;14.70;99.90;;;;;;4970688;28;20674;-76
2023/10/30 04:38:24;;;;;;;12.63;1.93;;;14.70;99.90;;;;;;4972108;28;20207;-77
2023/10/30 04:40:50;;;;;;;3.20;0.87;;;14.70;99.90;;;;;;4974493;28;20203;-77
2023/10/30 04:43:15;;;;;;;3.60;1.00;;;14.70;99.90;;;;;;4983986;28;20593;-77
2023/10/30 04:45:41;;;;;;;5.57;1.03;;;14.70;99.90;;;;;;4976047;28;20269;-77
2023/10/30 04:48:07;;;;;;;3.43;0.80;;;14.70;99.90;;;;;;4978394;28;20735;-76
2023/10/30 04:50:33;;;;;;;2.63;0.80;;;14.70;99.90;;;;;;4974844;28;20183;-76
2023/10/30 04:52:58;;;;;;;3.47;1.07;;;14.70;99.90;;;;;;4982791;28;20167;-77
2023/10/30 04:55:24;;;;;;;3.93;0.73;;;14.70;99.90;;;;;;4974266;28;20171;-77
2023/10/30 04:57:50;;;;;;;2.63;0.80;;;14.70;99.90;;;;;;4974083;28;21066;-77
2023/10/30 05:00:16;;;;;;;3.50;0.73;;;14.80;99.90;;;;;;4974346;28;20673;-76
2023/10/30 05:02:42;;;;;;;6.43;0.87;;;14.70;99.90;;;;;;4975509;28;20184;-76
2023/10/30 05:05:08;;;;;;;5.23;0.70;;;14.70;99.90;;;;;;4986750;28;20633;-76
2023/10/30 05:07:34;;;;;;;5.57;1.10;;;14.70;99.90;;;;;;4994812;28;20626;-76
2023/10/30 05:10:00;;;;;;;3.87;1.10;;;14.70;99.90;;;;;;4991408;28;20614;-76
2023/10/30 05:12:26;;;;;;;6.07;1.00;;;14.80;99.90;;;;;;5009999;28;20202;-76
2023/10/30 05:14:52;;;;;;;4.53;1.10;;;14.70;99.90;;;;;;4986953;28;20660;-75
2023/10/30 05:17:18;;;;;;;3.70;0.83;;;14.70;99.90;;;;;;4976984;28;20186;-75
2023/10/30 05:19:43;;;;;;;4.73;0.80;;;14.70;99.90;;;;;;4995141;28;20190;-75
2023/10/30 05:22:09;;;;;;;4.63;1.10;;;14.70;99.90;;;;;;4969145;28;20209;-76
2023/10/30 05:24:35;;;;;;;7.97;0.97;;;14.70;99.90;;;;;;4985663;28;20179;-76
2023/10/30 05:27:01;;;;;;;2.97;1.00;;;14.70;99.90;;;;;;4985654;28;20587;-76
2023/10/30 05:29:26;;;;;;;5.50;1.40;;;14.60;99.90;;;;;;4983400;28;20186;-76
2023/10/30 05:31:52;;;;;;;4.17;1.13;;;14.70;99.90;;;;;;4993029;28;20708;-77
2023/10/30 05:34:18;;;;;;;4.43;0.83;;;14.60;99.90;;;;;;4983263;28;20180;-76
2023/10/30 05:36:43;;;;;;;7.53;1.50;;;14.60;99.90;;;;;;4982186;28;20642;-76
2023/10/30 05:39:09;;;;;;;4.13;1.03;;;14.70;99.90;;;;;;4985581;28;20183;-77
2023/10/30 05:41:35;;;;;;;11.30;1.30;;;14.70;99.90;;;;;;4982450;28;20205;-77
2023/10/30 05:44:01;;;;;;;5.83;1.27;;;14.60;99.90;;;;;;4978123;28;20578;-77
2023/10/30 05:46:26;;;;;;;3.90;0.80;;;14.60;99.90;;;;;;4992962;28;20258;-76
2023/10/30 05:48:52;;;;;;;4.00;1.13;;;14.60;99.90;;;;;;5008924;28;20234;-76
2023/10/30 05:51:18;;;;;;;3.73;1.00;;;14.60;99.90;;;;;;4992485;28;20195;-76
2023/10/30 05:53:44;;;;;;;5.57;0.90;;;14.60;99.90;;;;;;4992951;28;20694;-76
2023/10/30 05:56:09;;;;;;;2.70;0.90;;;14.60;99.90;;;;;;4994380;28;20229;-77
2023/10/30 05:58:35;;;;;;;2.33;1.00;;;14.50;99.90;;;;;;5009028;28;20183;-77
2023/10/30 06:01:01;;;;;;;7.27;1.10;;;14.50;99.90;;;;;;4976018;28;20223;-76
2023/10/30 06:03:27;;;;;;;3.93;0.97;;;14.60;99.90;;;;;;4992360;28;20186;-77
2023/10/30 06:05:53;;;;;;;4.07;0.80;;;14.50;99.90;;;;;;4992796;28;20210;-77
2023/10/30 06:08:22;;;;;;;5.93;1.10;;;14.50;99.90;;;;;;4992665;28;20626;-77
2023/10/30 06:10:48;;;;;;;4.83;0.90;;;14.60;99.90;;;;;;4990680;28;20613;-77
2023/10/30 06:13:13;;;;;;;5.30;0.90;;;14.50;99.90;;;;;;4993986;28;20589;-77
2023/10/30 06:15:39;;;;;;;4.17;0.90;;;14.60;99.90;;;;;;4993765;28;20317;-76
2023/10/30 06:18:05;;;;;;;6.03;1.10;;;14.60;99.90;;;;;;4985522;28;20682;-77
2023/10/30 06:20:31;;;;;;;5.60;1.33;;;14.50;99.90;;;;;;4991309;28;20258;-76
2023/10/30 06:22:58;;;;;;;2.83;0.80;;;14.50;99.90;;;;;;4992649;28;20186;-77
2023/10/30 06:25:24;;;;;;;3.63;0.90;;;14.50;99.90;;;;;;5008553;28;20582;-77
2023/10/30 06:27:50;;;;;;;5.90;1.00;;;14.50;99.90;;;;;;4981452;28;20670;-78
2023/10/30 06:30:17;;;;;;;4.50;1.33;;;14.50;99.90;;;;;;4986713;28;20613;-78
2023/10/30 06:32:44;;;;;;;4.23;1.07;;;14.50;99.90;;;;;;4993166;28;20263;-78
2023/10/30 06:35:10;;;;;;;3.10;1.07;;;14.60;99.90;;;;;;4991964;28;20594;-77
2023/10/30 06:37:36;;;;;;;5.43;1.20;;;14.60;99.90;;;;;;4984606;28;20646;-79
2023/10/30 06:40:03;;;;;;;3.40;1.37;;;14.50;99.90;;;;;;4992851;28;20583;-76
2023/10/30 06:42:29;;;;;;;7.27;1.70;;;14.50;99.90;;;;;;4982338;28;21008;-77
2023/10/30 06:44:54;;;;;;;8.20;1.37;;;14.40;99.90;;;;;;4991326;28;20612;-77
2023/10/30 06:47:20;;;;;;;3.20;1.00;;;14.40;99.90;;;;;;4992933;28;20624;-76
2023/10/30 06:49:46;;;;;;;11.23;1.50;;;14.40;99.90;;;;;;4989840;28;20646;-77
2023/10/30 06:52:12;;;;;;;4.23;1.27;;;14.30;99.90;;;;;;4993063;28;20229;-78
2023/10/30 06:54:38;;;;;;;7.70;1.63;;;14.40;99.90;;;;;;4992064;28;20228;-78
2023/10/30 06:57:04;;;;;;;7.40;1.30;;;14.30;99.90;;;;;;4991890;28;20735;-77
2023/10/30 06:59:30;;;;;;;3.40;1.30;;;14.40;99.90;;;;;;4993565;28;20677;-76
2023/10/30 07:01:55;;;;;;;3.40;1.10;;;14.40;99.90;;;;;;4988532;28;20978;-77
2023/10/30 07:04:22;;;;;;;6.37;1.30;;;14.40;99.90;;;;;;4992188;28;20175;-77
2023/10/30 07:06:48;;;;;;;3.37;1.10;;;14.50;99.90;;;;;;4981050;28;20199;-76
2023/10/30 07:09:15;;;;;;;3.10;1.10;;;14.40;99.90;;;;;;4985670;28;20630;-76
2023/10/30 07:11:40;;;;;;;3.50;1.20;;;14.40;99.90;;;;;;4990255;28;20630;-76
2023/10/30 07:14:08;;;;;;;4.77;1.40;;;14.50;99.90;;;;;;4984426;28;20586;-77
2023/10/30 07:16:34;;;;;;;4.03;1.40;;;14.50;99.90;;;;;;5009375;28;20179;-76
2023/10/30 07:19:00;;;;;;;6.63;2.73;;;14.50;99.90;;;;;;4992608;28;20957;-76
2023/10/30 07:21:28;;;;;;;4.83;2.23;;;14.50;99.90;;;;;;4984223;28;20625;-75
2023/10/30 07:23:54;;;;;;;7.50;2.60;;;14.50;99.90;;;;;;4991294;28;20675;-76
2023/10/30 07:26:21;;;;;;;5.80;2.67;;;14.60;99.90;;;;;;5005567;28;20602;-76
2023/10/30 07:28:48;;;;;;;6.93;2.17;;;14.60;99.90;;;;;;4976020;28;20639;-76
2023/10/30 07:31:14;;;;;;;6.57;2.00;;;14.50;99.90;;;;;;4990492;28;20713;-76
2023/10/30 07:33:40;;;;;;;6.63;2.10;;;14.60;99.90;;;;;;4991053;28;20602;-76
2023/10/30 07:36:06;;;;;;;11.30;2.43;;;14.60;99.90;;;;;;4990434;28;21144;-76
2023/10/30 07:38:32;;;;;;;6.33;2.60;;;14.60;99.90;;;;;;4982008;28;20674;-75
2023/10/30 07:40:58;;;;;;;9.43;3.00;;;14.60;99.90;;;;;;4980928;28;20625;-76
2023/10/30 07:43:24;;;;;;;5.47;3.10;;;14.60;99.90;;;;;;4991314;28;20186;-76
2023/10/30 07:45:50;;;;;;;6.50;2.80;;;14.70;99.90;;;;;;4992059;28;20692;-75
2023/10/30 07:48:16;;;;;;;6.77;3.27;;;14.70;99.90;;;;;;5003084;28;20243;-78
2023/10/30 07:50:43;;;;;;;6.07;2.83;;;14.80;99.90;;;;;;4986957;28;21202;-79
2023/10/30 07:53:10;;;;;;;9.93;4.20;;;14.80;99.90;;;;;;4986577;28;20598;-78
2023/10/30 07:55:38;;;;;;;6.70;3.03;;;14.80;99.90;;;;;;4985740;28;21136;-78
2023/10/30 07:58:08;;;;;;;12.27;4.67;;;14.90;99.90;;;;;;4979594;28;20210;-78
2023/10/30 08:00:34;;;;;;;6.00;3.20;;;14.90;99.90;;;;;;4976406;28;20619;-77
2023/10/30 08:03:00;;;;;;;7.43;3.63;;;15.00;99.90;;;;;;4990709;28;20583;-77
2023/10/30 08:05:27;;;;;;;9.30;4.63;;;15.00;99.90;;;;;;4991870;28;20586;-77
2023/10/30 08:07:53;;;;;;;10.97;3.77;;;15.00;99.90;;;;;;4988628;28;20649;-77
2023/10/30 08:10:18;;;;;;;6.13;2.33;;;15.10;99.90;;;;;;4974780;28;20582;-77
2023/10/30 08:12:45;;;;;;;6.50;2.00;;;15.10;99.90;;;;;;4981074;28;20287;-78
2023/10/30 08:15:11;;;;;;;6.17;1.80;;;15.20;99.90;;;;;;4963101;28;20634;-77
2023/10/30 08:17:37;;;;;;;3.27;1.40;;;15.20;99.90;;;;;;4987074;28;20590;-77
2023/10/30 08:20:04;;;;;;;2.90;1.40;;;15.30;99.90;;;;;;4991749;28;20221;-77
2023/10/30 08:22:32;;;;;;;4.50;1.70;;;15.40;99.90;;;;;;4989641;28;20618;-77
2023/10/30 08:24:58;;;;;;;3.60;1.37;;;15.50;99.90;;;;;;4998161;28;20591;-77
2023/10/30 08:27:24;;;;;;;2.50;1.37;;;15.50;99.90;;;;;;4978358;28;20692;-76
2023/10/30 08:29:50;;;;;;;4.93;1.73;;;15.60;99.90;;;;;;4988634;28;21071;-76
2023/10/30 08:32:16;;;;;;;4.67;1.30;;;15.70;99.90;;;;;;4991376;28;20629;-76
2023/10/30 08:34:41;;;;;;;3.87;1.40;;;15.80;99.90;;;;;;4991613;28;20179;-77
2023/10/30 08:37:07;;;;;;;6.50;1.40;;;15.90;99.90;;;;;;4988070;28;20543;-75
2023/10/30 08:39:33;;;;;;;3.23;1.40;;;16.10;99.90;;;;;;4985078;28;20261;-75
2023/10/30 08:41:59;;;;;;;4.20;1.30;;;16.40;99.90;;;;;;4982527;28;20622;-75
2023/10/30 08:44:24;;;;;;;3.80;1.70;;;16.70;99.90;;;;;;4990532;28;20237;-74
2023/10/30 08:46:51;;;;;;;7.70;1.33;;;17.00;99.90;;;;;;4972064;28;20198;-75
2023/10/30 08:49:16;;;;;;;3.30;1.40;;;17.30;99.90;;;;;;4972122;28;20215;-74
2023/10/30 08:51:43;;;;;;;2.50;1.07;;;17.60;99.90;;;;;;4974868;28;20619;-74
2023/10/30 08:54:09;;;;;;;4.03;1.30;;;17.90;99.90;;;;;;4980109;28;20192;-74
2023/10/30 08:56:36;;;;;;;4.47;1.10;;;18.20;99.90;;;;;;4986816;28;20615;-75
2023/10/30 08:59:05;;;;;;;3.40;1.77;;;18.40;99.90;;;;;;4975631;28;20594;-76
2023/10/30 09:01:31;;;;;;;2.60;0.93;;;18.50;99.90;;;;;;4968447;28;20669;-75
2023/10/30 09:03:57;;;;;;;3.40;1.30;;;18.60;99.90;;;;;;4956925;28;20592;-76
2023/10/30 09:06:23;;;;;;;3.67;1.27;;;18.60;99.90;;;;;;4970063;28;20995;-76
2023/10/30 09:08:49;;;;;;;3.90;1.40;;;18.50;99.90;;;;;;4953419;28;20630;-75
2023/10/30 09:11:15;;;;;;;3.83;1.20;;;18.40;99.90;;;;;;4966584;28;20614;-76
2023/10/30 09:13:41;;;;;;;2.77;0.90;;;18.30;99.90;;;;;;4967688;28;20176;-76
2023/10/30 09:16:08;;;;;;;3.00;1.10;;;18.30;99.90;;;;;;4969883;28;20941;-76
2023/10/30 09:18:35;;;;;;;3.93;1.30;;;18.20;99.90;;;;;;4970909;28;20602;-75
2023/10/30 09:21:01;;;;;;;3.17;1.20;;;18.20;99.90;;;;;;4970997;28;20715;-75
2023/10/30 09:23:26;;;;;;;2.00;1.00;;;18.10;99.90;;;;;;4971205;28;20681;-75
2023/10/30 09:25:55;;;;;;;3.13;0.90;;;18.10;99.90;;;;;;4971623;28;20689;-75
2023/10/30 09:28:20;;;;;;;5.67;1.10;;;18.10;99.90;;;;;;4972447;28;20243;-75
2023/10/30 09:30:46;;;;;;;4.20;1.40;;;18.10;99.90;;;;;;4974498;28;21210;-75
2023/10/30 09:33:12;;;;;;;2.43;1.20;;;18.00;99.90;;;;;;4974896;28;20549;-75
2023/10/30 09:35:38;;;;;;;3.93;1.20;;;18.00;99.90;;;;;;4974791;28;20184;-75
2023/10/30 09:38:05;;;;;;;3.67;1.10;;;18.10;99.90;;;;;;4974374;28;20199;-75
2023/10/30 09:40:31;;;;;;;2.83;1.10;;;18.20;99.90;;;;;;4973477;28;20603;-75
2023/10/30 09:42:58;;;;;;;2.50;1.00;;;18.20;99.90;;;;;;4990804;28;21034;-75
2023/10/30 09:45:25;;;;;;;5.23;1.53;;;18.10;99.90;;;;;;4974324;28;20658;-75
2023/10/30 09:47:56;;;;;;;4.03;1.10;;;18.10;99.90;;;;;;4964871;28;20638;-75
2023/10/30 09:50:25;;;;;;;2.23;1.00;;;18.00;99.90;;;;;;4989412;28;20882;-75
2023/10/30 09:52:53;;;;;;;2.40;1.27;;;18.00;99.90;;;;;;4973155;28;20610;-76
2023/10/30 09:55:23;;;;;;;3.40;0.90;;;18.00;99.90;;;;;;4964981;28;20618;-75
2023/10/30 09:57:51;;;;;;;3.57;1.07;;;18.00;99.90;;;;;;4974366;28;20838;-75
2023/10/30 10:00:17;;;;;;;3.43;1.27;;;18.00;99.90;;;;;;4972957;28;20661;-75
2023/10/30 10:02:44;;;;;;;2.40;1.43;;;17.90;99.90;;;;;;4974247;28;20587;-75
2023/10/30 10:05:11;;;;;;;2.10;1.10;;;17.70;99.90;;;;;;4976347;28;20583;-75
2023/10/30 10:07:37;;;;;;;3.47;1.10;;;17.70;99.90;;;;;;4979708;28;20642;-76
2023/10/30 10:10:08;;;;;;;2.60;1.07;;;17.70;99.90;;;;;;4972910;28;20949;-75
2023/10/30 10:12:35;;;;;;;3.43;1.40;;;17.60;99.90;;;;;;4973186;28;20622;-75
2023/10/30 10:15:08;;;;;;;3.20;0.90;;;17.60;99.90;;;;;;4974138;28;20587;-75
2023/10/30 10:17:42;;;;;;;5.13;1.10;;;17.60;99.90;;;;;;4976033;28;20583;-75
2023/10/30 10:20:10;;;;;;;3.27;1.20;;;17.60;99.90;;;;;;4982233;28;20586;-75
2023/10/30 10:22:37;;;;;;;3.97;1.07;;;17.60;99.90;;;;;;4973441;28;20698;-75
2023/10/30 10:25:05;;;;;;;3.00;1.00;;;17.60;99.90;;;;;;4972398;28;20670;-75
2023/10/30 10:27:31;;;;;;;5.87;1.00;;;17.60;99.90;;;;;;4973715;28;20725;-74
2023/10/30 10:29:58;;;;;;;3.40;1.60;;;17.60;99.90;;;;;;4973677;28;20741;-75
2023/10/30 10:32:28;;;;;;;1.80;1.10;;;17.60;99.90;;;;;;4973797;28;20698;-75
2023/10/30 10:35:02;;;;;;;4.23;1.00;;;17.70;99.90;;;;;;4966582;28;20786;-75
2023/10/30 10:37:29;;;;;;;2.53;0.90;;;17.60;99.90;;;;;;4944797;28;20591;-75
2023/10/30 10:39:55;;;;;;;2.20;0.97;;;17.60;99.90;;;;;;4970344;28;21298;-76
2023/10/30 10:42:25;;;;;;;3.20;1.10;;;17.60;99.90;;;;;;4978194;28;20618;-77
2023/10/30 10:44:52;;;;;;;2.77;0.90;;;17.70;99.90;;;;;;4977663;28;20653;-75
2023/10/30 10:47:19;;;;;;;1.93;0.80;;;17.60;99.90;;;;;;4975145;28;20614;-74
2023/10/30 10:49:45;;;;;;;1.60;0.80;;;17.70;99.90;;;;;;4973544;28;20592;-75
2023/10/30 10:52:13;;;;;;;2.13;0.80;;;17.80;99.90;;;;;;4979735;28;20729;-75
2023/10/30 10:55:05;;;;;;;3.30;0.80;;;17.80;99.90;;;;;;4973489;28;20583;-75
2023/10/30 10:58:08;;;;;;;2.40;0.90;;;17.80;99.90;;;;;;4966584;28;20598;-75
2023/10/30 11:00:40;;;;;;;2.97;1.07;;;17.70;99.90;;;;;;4953750;28;20621;-75
2023/10/30 11:03:08;;;;;;;1.80;0.80;;;17.60;99.90;;;;;;4989317;28;20652;-75
2023/10/30 11:05:35;;;;;;;4.13;1.10;;;17.60;99.90;;;;;;4973385;28;20591;-75
2023/10/30 11:08:21;;;;;;;3.53;1.20;;;17.60;99.90;;;;;;4971275;28;20761;-75
2023/10/30 11:10:56;;;;;;;2.53;1.20;;;17.50;99.90;;;;;;4942754;28;20607;-75
2023/10/30 11:13:32;;;;;;;2.20;0.90;;;17.50;99.90;;;;;;4984766;28;21142;-75
2023/10/30 11:16:17;;;;;;;2.27;1.00;;;17.60;99.90;;;;;;4977908;28;20746;-74
2023/10/30 11:18:43;;;;;;;2.10;1.07;;;17.80;99.90;;;;;;4971661;28;20649;-75
2023/10/30 11:21:10;;;;;;;3.20;1.10;;;17.90;99.90;;;;;;4974918;28;20607;-75
2023/10/30 11:23:45;;;;;;;3.30;1.30;;;18.10;99.90;;;;;;4990396;28;20190;-74
2023/10/30 11:26:38;;;;;;;3.80;0.80;;;18.20;99.90;;;;;;4986747;28;20590;-74
2023/10/30 11:29:06;;;;;;;2.73;0.80;;;18.30;99.90;;;;;;4963749;28;20645;-75
2023/10/30 11:31:54;;;;;;;2.57;0.70;;;18.50;99.90;;;;;;4972857;28;21027;-76
2023/10/30 11:34:34;;;;;;;3.57;0.80;;;18.60;99.90;;;;;;4971525;28;20638;-75
2023/10/30 11:37:12;;;;;;;1.60;0.80;;;18.80;99.90;;;;;;4980798;28;21005;-75
2023/10/30 11:39:39;;;;;;;2.10;1.00;;;18.90;99.90;;;;;;4971345;28;20582;-74
2023/10/30 11:42:25;;;;;;;5.03;2.30;;;19.00;99.90;;;;;;4972571;28;20707;-75
2023/10/30 11:44:52;;;;;;;5.07;2.03;;;19.00;99.90;;;;;;4971255;28;20590;-74
2023/10/30 11:47:24;;;;;;;2.50;1.20;;;19.10;99.90;;;;;;4979073;28;20590;-75
2023/10/30 11:49:55;;;;;;;2.63;0.73;;;19.00;99.90;;;;;;4979632;28;20591;-74
2023/10/30 11:52:21;;;;;;;2.97;0.80;;;19.00;99.90;;;;;;4988775;28;20619;-75
2023/10/30 11:54:48;;;;;;;3.50;1.10;;;18.90;99.90;;;;;;4984957;28;20636;-75
2023/10/30 11:57:14;;;;;;;2.60;1.10;;;18.90;99.90;;;;;;4976557;28;20179;-75
2023/10/30 11:59:40;;;;;;;3.70;1.83;;;18.90;99.90;;;;;;4961512;28;20588;-75
2023/10/30 12:02:06;;;;;;;1.87;1.00;;;18.90;99.90;;;;;;4980691;28;20618;-77
2023/10/30 12:04:35;;;;;;;1.80;0.70;;;18.80;99.90;;;;;;4962917;28;20187;-74
2023/10/30 12:07:00;;;;;;;1.50;0.53;;;18.80;99.90;;;;;;4980117;28;20582;-74
2023/10/30 12:09:26;;;;;;;2.37;0.80;;;18.70;99.90;;;;;;4981199;28;20635;-74
2023/10/30 12:11:55;;;;;;;2.37;0.60;;;18.70;99.90;;;;;;4979029;28;20625;-74
2023/10/30 12:14:21;;;;;;;1.77;0.90;;;18.70;99.90;;;;;;4990331;28;20520;-75
2023/10/30 12:16:51;;;;;;;2.70;0.77;;;18.70;99.90;;;;;;4982707;28;20676;-75
2023/10/30 12:19:21;;;;;;;1.27;0.50;;;18.70;99.90;;;;;;4972005;28;20583;-75
2023/10/30 12:21:48;;;;;;;3.40;0.60;;;18.80;99.90;;;;;;5001330;28;20685;-75
2023/10/30 12:24:17;;;;;;;2.63;0.60;;;18.80;99.90;;;;;;4974876;28;20609;-74
2023/10/30 12:26:43;;;;;;;2.03;0.60;;;18.80;99.90;;;;;;4986118;28;20658;-75
2023/10/30 12:29:09;;;;;;;1.43;0.60;;;18.90;99.90;;;;;;5004190;28;20650;-74
2023/10/30 12:31:35;;;;;;;1.67;0.77;;;18.90;99.90;;;;;;4983484;28;20661;-75
2023/10/30 12:34:10;;;;;;;2.93;1.00;;;18.80;99.90;;;;;;4982024;28;20190;-75
2023/10/30 12:36:36;;;;;;;2.17;0.63;;;18.80;99.90;;;;;;4985554;28;20610;-75
2023/10/30 12:39:18;;;;;;;1.90;0.70;;;18.70;99.90;;;;;;4979526;28;20918;-74
2023/10/30 12:41:47;;;;;;;2.67;0.70;;;18.50;99.90;;;;;;4985644;28;20669;-75
2023/10/30 12:44:17;;;;;;;1.40;0.67;;;18.50;99.90;;;;;;4978855;28;20686;-75